createdAt,value
2022-08-26T00:02:20.498Z,22.00
2022-08-26T00:05:23.082Z,21.80
2022-08-26T00:08:25.379Z,21.80
2022-08-26T00:11:29.001Z,21.70
2022-08-26T00:14:31.728Z,21.70
2022-08-26T00:17:34.214Z,21.70
2022-08-26T00:20:36.412Z,21.70
2022-08-26T00:23:38.383Z,21.60
2022-08-26T00:26:41.462Z,21.50
2022-08-26T00:29:43.616Z,21.50
2022-08-26T00:32:46.473Z,21.50
2022-08-26T00:35:48.931Z,21.50
2022-08-26T00:38:53.937Z,21.60
2022-08-26T00:41:56.069Z,21.60
2022-08-26T00:44:58.660Z,21.50
2022-08-26T00:48:05.900Z,21.50
2022-08-26T00:51:18.738Z,21.40
2022-08-26T00:54:24.471Z,21.50
2022-08-26T00:57:29.771Z,21.50
2022-08-26T01:00:32.661Z,21.40
2022-08-26T01:03:35.983Z,21.50
2022-08-26T01:06:38.228Z,21.30
2022-08-26T01:09:40.248Z,21.30
2022-08-26T01:12:50.229Z,21.20
2022-08-26T01:15:56.428Z,21.30
2022-08-26T01:19:03.543Z,21.20
2022-08-26T01:22:20.178Z,21.30
2022-08-26T01:25:25.838Z,21.30
2022-08-26T01:28:31.024Z,21.30
2022-08-26T01:31:38.466Z,21.30
2022-08-26T01:34:41.175Z,21.10
2022-08-26T01:37:43.092Z,21.20
2022-08-26T01:40:46.033Z,21.10
2022-08-26T01:43:53.267Z,21.20
2022-08-26T01:46:57.356Z,21.10
2022-08-26T01:50:05.104Z,21.10
2022-08-26T01:53:11.452Z,21.10
2022-08-26T01:56:14.776Z,21.40
2022-08-26T01:59:18.411Z,21.20
2022-08-26T02:02:21.441Z,21.20
2022-08-26T02:05:24.473Z,21.30
2022-08-26T02:08:56.720Z,21.20
2022-08-26T02:12:01.646Z,21.20
2022-08-26T02:15:07.437Z,21.20
2022-08-26T02:18:14.004Z,21.10
2022-08-26T02:21:17.107Z,21.00
2022-08-26T02:24:28.475Z,21.00
2022-08-26T02:27:33.664Z,20.90
2022-08-26T02:30:35.950Z,20.90
2022-08-26T02:33:38.216Z,21.00
2022-08-26T02:36:45.151Z,20.90
2022-08-26T02:39:47.122Z,21.10
2022-08-26T02:42:50.377Z,21.00
2022-08-26T02:45:55.184Z,21.10
2022-08-26T02:48:58.332Z,20.90
2022-08-26T02:52:01.993Z,21.00
2022-08-26T02:55:05.304Z,20.90
2022-08-26T02:58:07.396Z,21.00
2022-08-26T03:01:20.935Z,21.00
2022-08-26T03:04:25.771Z,21.00
2022-08-26T03:07:29.802Z,21.10
2022-08-26T03:10:32.223Z,21.00
2022-08-26T03:13:36.291Z,20.90
2022-08-26T03:16:38.267Z,21.00
2022-08-26T03:19:40.217Z,21.00
2022-08-26T03:22:43.331Z,21.10
2022-08-26T03:25:52.490Z,21.20
2022-08-26T03:29:12.997Z,21.10
2022-08-26T03:32:16.925Z,21.00
2022-08-26T03:35:18.955Z,21.00
2022-08-26T03:38:27.126Z,21.10
2022-08-26T03:41:29.097Z,21.10
2022-08-26T03:44:31.625Z,21.10
2022-08-26T03:47:34.694Z,21.20
2022-08-26T03:50:40.523Z,21.20
2022-08-26T03:53:42.887Z,21.30
2022-08-26T03:56:46.596Z,21.30
2022-08-26T03:59:48.982Z,21.40
2022-08-26T04:02:53.438Z,21.30
2022-08-26T04:05:55.476Z,21.30
2022-08-26T04:09:00.256Z,21.10
2022-08-26T04:12:03.639Z,21.20
2022-08-26T04:15:10.835Z,21.10
2022-08-26T04:18:12.796Z,21.10
2022-08-26T04:21:15.399Z,21.10
2022-08-26T04:24:17.563Z,21.20
2022-08-26T04:27:19.722Z,21.30
2022-08-26T04:30:21.982Z,21.30
2022-08-26T04:33:32.435Z,21.30
2022-08-26T04:36:35.402Z,21.40
2022-08-26T04:39:38.256Z,21.40
2022-08-26T04:42:40.173Z,21.40
2022-08-26T04:45:43.699Z,21.40
2022-08-26T04:48:45.919Z,21.50
2022-08-26T04:51:48.954Z,21.50
2022-08-26T04:54:51.130Z,21.40
2022-08-26T04:57:53.696Z,21.40
2022-08-26T05:00:56.723Z,21.50
2022-08-26T05:03:59.056Z,21.40
2022-08-26T05:07:03.031Z,21.50
2022-08-26T05:10:08.827Z,21.50
2022-08-26T05:13:15.179Z,21.60
2022-08-26T05:16:17.798Z,21.70
2022-08-26T05:19:19.800Z,21.90
2022-08-26T05:22:23.067Z,22.10
2022-08-26T05:25:25.136Z,22.20
2022-08-26T05:28:30.339Z,22.50
2022-08-26T05:31:34.181Z,22.70
2022-08-26T05:34:37.558Z,22.90
2022-08-26T05:37:40.231Z,23.10
2022-08-26T05:40:46.042Z,23.30
2022-08-26T05:43:48.229Z,23.40
2022-08-26T05:46:51.938Z,23.30
2022-08-26T05:49:54.840Z,23.20
2022-08-26T05:52:57.947Z,23.00
2022-08-26T05:56:02.555Z,23.10
2022-08-26T05:59:04.559Z,23.10
2022-08-26T06:02:07.477Z,23.50
2022-08-26T06:05:09.788Z,23.70
2022-08-26T06:08:13.560Z,23.70
2022-08-26T06:11:18.854Z,23.80
2022-08-26T06:14:20.828Z,23.90
2022-08-26T06:17:22.742Z,23.90
2022-08-26T06:20:25.400Z,23.90
2022-08-26T06:23:48.038Z,24.10
2022-08-26T06:26:54.059Z,24.20
2022-08-26T06:29:56.066Z,24.10
2022-08-26T06:32:58.000Z,24.30
2022-08-26T06:36:01.216Z,24.30
2022-08-26T06:39:07.467Z,24.30
2022-08-26T06:42:10.905Z,24.20
2022-08-26T06:45:13.900Z,23.90
2022-08-26T06:48:18.729Z,24.10
2022-08-26T06:51:29.711Z,23.90
2022-08-26T06:54:32.175Z,23.80
2022-08-26T06:57:37.776Z,23.60
2022-08-26T07:00:47.317Z,23.70
2022-08-26T07:03:51.591Z,23.50
2022-08-26T07:06:56.487Z,23.70
2022-08-26T07:09:58.456Z,23.80
2022-08-26T07:13:00.913Z,24.00
2022-08-26T07:16:07.492Z,24.10
2022-08-26T07:19:11.705Z,23.80
2022-08-26T07:22:13.682Z,24.00
2022-08-26T07:25:16.060Z,24.10
2022-08-26T07:28:18.009Z,24.20
2022-08-26T07:31:22.688Z,24.20
2022-08-26T07:34:25.093Z,24.20
2022-08-26T07:37:28.469Z,24.20
2022-08-26T07:40:39.374Z,24.40
2022-08-26T07:43:41.829Z,24.70
2022-08-26T07:46:44.264Z,24.40
2022-08-26T07:49:56.754Z,24.40
2022-08-26T07:52:58.786Z,24.30
2022-08-26T07:56:00.730Z,24.20
2022-08-26T07:59:02.629Z,24.20
2022-08-26T08:02:10.622Z,24.50
2022-08-26T08:05:16.825Z,24.70
2022-08-26T08:08:27.550Z,24.50
2022-08-26T08:11:31.253Z,24.70
2022-08-26T08:14:34.672Z,25.30
2022-08-26T08:17:36.643Z,25.20
2022-08-26T08:20:38.594Z,25.10
2022-08-26T08:23:46.646Z,24.80
2022-08-26T08:26:49.533Z,24.90
2022-08-26T08:29:57.284Z,25.10
2022-08-26T08:32:59.403Z,25.10
2022-08-26T08:36:01.866Z,25.50
2022-08-26T08:39:04.257Z,25.70
2022-08-26T08:42:20.424Z,25.80
2022-08-26T08:45:37.690Z,26.10
2022-08-26T08:49:04.172Z,26.30
2022-08-26T08:52:20.676Z,26.90
2022-08-26T08:55:23.790Z,27.20
2022-08-26T08:58:36.950Z,27.20
2022-08-26T09:01:44.661Z,27.10
2022-08-26T09:05:20.610Z,27.70
2022-08-26T09:08:29.605Z,27.60
2022-08-26T09:11:31.904Z,27.70
2022-08-26T09:14:34.148Z,27.50
2022-08-26T09:18:08.037Z,27.10
2022-08-26T09:21:17.935Z,26.90
2022-08-26T09:24:20.116Z,27.00
2022-08-26T09:27:42.826Z,27.10
2022-08-26T09:30:47.267Z,27.20
2022-08-26T09:33:49.977Z,27.30
2022-08-26T09:36:58.459Z,27.40
2022-08-26T09:40:34.533Z,27.10
2022-08-26T09:43:37.591Z,27.10
2022-08-26T09:47:04.154Z,27.10
2022-08-26T09:50:12.452Z,27.40
2022-08-26T09:53:25.188Z,27.40
2022-08-26T09:56:37.131Z,27.60
2022-08-26T09:59:39.049Z,27.70
2022-08-26T10:02:47.688Z,27.50
2022-08-26T10:05:59.093Z,27.50
2022-08-26T10:09:08.864Z,27.60
2022-08-26T10:12:17.403Z,28.20
2022-08-26T10:15:21.210Z,28.20
2022-08-26T10:18:39.892Z,27.70
2022-08-26T10:22:05.680Z,27.60
2022-08-26T10:25:14.330Z,27.80
2022-08-26T10:28:37.295Z,28.10
2022-08-26T10:31:46.807Z,28.20
2022-08-26T10:34:49.870Z,28.10
2022-08-26T10:38:00.523Z,28.30
2022-08-26T10:41:16.977Z,28.10
2022-08-26T10:44:21.770Z,28.10
2022-08-26T10:47:38.190Z,28.00
2022-08-26T10:50:44.368Z,28.00
2022-08-26T10:54:12.682Z,27.80
2022-08-26T10:57:50.831Z,27.50
2022-08-26T11:40:25.105Z,27.80
2022-08-26T11:43:30.255Z,27.80
2022-08-26T11:46:37.379Z,27.80
2022-08-26T11:49:39.702Z,27.50
2022-08-26T11:53:07.843Z,27.60
2022-08-26T11:56:24.566Z,27.50
2022-08-26T12:02:44.504Z,27.30
2022-08-26T12:05:50.023Z,27.20
2022-08-26T12:08:55.684Z,27.30
2022-08-26T12:12:14.915Z,27.30
2022-08-26T12:15:22.188Z,27.20
2022-08-26T12:18:30.787Z,27.10
2022-08-26T12:21:34.898Z,27.00
2022-08-26T12:24:47.766Z,26.80
2022-08-26T12:27:53.795Z,26.90
2022-08-26T12:31:04.980Z,26.70
2022-08-26T12:34:17.678Z,26.80
2022-08-26T12:37:19.879Z,26.70
2022-08-26T12:40:31.220Z,26.70
2022-08-26T12:43:42.236Z,26.70
2022-08-26T12:46:49.190Z,26.60
2022-08-26T12:50:09.997Z,26.70
2022-08-26T12:53:11.988Z,26.50
2022-08-26T12:56:40.836Z,26.40
2022-08-26T12:59:42.788Z,26.20
2022-08-26T13:02:44.763Z,26.10
2022-08-26T13:05:46.762Z,25.90
2022-08-26T13:08:51.934Z,25.90
2022-08-26T13:11:53.981Z,25.80
2022-08-26T13:14:57.675Z,25.80
2022-08-26T13:17:59.603Z,25.80
2022-08-26T13:21:07.832Z,25.80
2022-08-26T13:24:12.511Z,25.90
2022-08-26T13:27:15.456Z,25.80
2022-08-26T13:30:17.441Z,26.00
2022-08-26T13:33:21.693Z,26.00
2022-08-26T13:36:23.888Z,26.00
2022-08-26T13:39:27.045Z,26.10
2022-08-26T13:42:29.453Z,26.10
2022-08-26T13:45:31.768Z,26.10
2022-08-26T13:48:35.176Z,26.10
2022-08-26T13:51:39.368Z,26.10
2022-08-26T13:54:41.388Z,26.00
2022-08-26T13:57:43.360Z,26.00
2022-08-26T14:00:45.334Z,26.00
2022-08-26T14:03:49.336Z,25.90
2022-08-26T14:06:51.591Z,25.90
2022-08-26T14:09:53.550Z,25.90
2022-08-26T14:12:55.912Z,25.90
2022-08-26T14:15:59.773Z,25.80
2022-08-26T14:19:04.619Z,25.80
2022-08-26T14:22:06.676Z,25.60
2022-08-26T14:25:09.635Z,25.70
2022-08-26T14:28:14.146Z,25.60
2022-08-26T14:31:17.072Z,25.50
2022-08-26T14:34:18.951Z,25.50
2022-08-26T14:37:21.267Z,25.50
2022-08-26T14:40:26.086Z,25.40
2022-08-26T14:43:28.027Z,25.40
2022-08-26T14:46:32.632Z,25.40
2022-08-26T14:49:34.623Z,25.30
2022-08-26T14:52:56.534Z,25.30
2022-08-26T14:55:58.488Z,25.30
2022-08-26T14:59:01.012Z,25.30
2022-08-26T15:02:04.111Z,25.40
2022-08-26T15:05:08.588Z,25.40
2022-08-26T15:08:10.854Z,25.40
2022-08-26T15:11:13.012Z,25.50
2022-08-26T15:14:19.232Z,25.50
2022-08-26T15:17:21.738Z,25.50
2022-08-26T15:20:23.787Z,25.50
2022-08-26T15:23:25.822Z,25.60
2022-08-26T15:26:29.892Z,25.60
2022-08-26T15:29:31.957Z,25.50
2022-08-26T15:32:38.274Z,25.50
2022-08-26T15:35:40.329Z,25.50
2022-08-26T15:38:44.895Z,25.40
2022-08-26T15:41:47.717Z,25.30
2022-08-26T15:44:49.985Z,25.30
2022-08-26T15:48:00.679Z,25.20
2022-08-26T15:51:03.446Z,25.10
2022-08-26T15:54:06.613Z,25.00
2022-08-26T15:57:14.396Z,24.90
2022-08-26T16:00:17.629Z,24.90
2022-08-26T16:03:20.125Z,24.80
2022-08-26T16:06:27.536Z,24.80
2022-08-26T16:09:30.813Z,24.70
2022-08-26T16:12:32.778Z,24.70
2022-08-26T16:15:35.646Z,24.60
2022-08-26T16:18:37.755Z,24.50
2022-08-26T16:21:41.049Z,24.40
2022-08-26T16:24:43.078Z,24.40
2022-08-26T16:27:44.990Z,24.30
2022-08-26T16:30:47.148Z,24.30
2022-08-26T16:33:49.158Z,24.20
2022-08-26T16:36:51.214Z,24.20
2022-08-26T16:39:53.192Z,24.10
2022-08-26T16:42:55.418Z,24.10
2022-08-26T16:45:57.539Z,24.00
2022-08-26T16:49:00.022Z,24.00
2022-08-26T16:52:02.082Z,23.90
2022-08-26T16:55:09.489Z,23.80
2022-08-26T16:58:11.559Z,23.80
2022-08-26T17:01:13.646Z,23.80
2022-08-26T17:04:16.097Z,23.70
2022-08-26T17:07:18.143Z,23.70
2022-08-26T17:10:21.455Z,23.60
2022-08-26T17:13:34.931Z,23.60
2022-08-26T17:16:38.147Z,23.50
2022-08-26T17:19:46.930Z,23.50
2022-08-26T17:22:50.881Z,23.40
2022-08-26T17:25:52.949Z,23.40
2022-08-26T17:28:55.132Z,23.30
2022-08-26T17:31:57.210Z,23.20
2022-08-26T17:34:59.408Z,23.10
2022-08-26T17:38:02.495Z,23.10
2022-08-26T17:41:08.930Z,23.00
2022-08-26T17:44:11.307Z,22.90
2022-08-26T17:47:13.209Z,22.90
2022-08-26T17:50:18.312Z,22.80
2022-08-26T17:53:21.664Z,22.70
2022-08-26T17:56:27.100Z,22.70
2022-08-26T17:59:30.579Z,22.60
2022-08-26T18:02:32.790Z,22.60
2022-08-26T18:05:34.695Z,22.50
2022-08-26T18:08:37.459Z,22.50
2022-08-26T18:11:40.625Z,22.60
2022-08-26T18:14:42.436Z,22.40
2022-08-26T18:17:45.103Z,22.40
2022-08-26T18:20:47.147Z,22.50
2022-08-26T18:23:56.940Z,22.70
2022-08-26T18:26:58.947Z,22.70
2022-08-26T18:30:01.540Z,22.50
2022-08-26T18:33:03.717Z,22.60
2022-08-26T18:36:05.817Z,22.60
2022-08-26T18:39:09.033Z,22.50
2022-08-26T18:42:10.977Z,22.40
2022-08-26T18:45:16.038Z,22.40
2022-08-26T18:48:18.201Z,22.20
2022-08-26T18:51:23.565Z,22.20
2022-08-26T18:54:26.009Z,22.20
2022-08-26T18:57:27.950Z,22.20
2022-08-26T19:00:31.567Z,22.20
2022-08-26T19:03:33.676Z,22.20
2022-08-26T19:06:36.312Z,22.30
2022-08-26T19:09:38.240Z,22.20
2022-08-26T19:12:40.165Z,22.20
2022-08-26T19:15:44.533Z,22.40
2022-08-26T19:18:47.177Z,22.30
2022-08-26T19:21:49.201Z,22.10
2022-08-26T19:24:51.140Z,22.20
2022-08-26T19:27:53.102Z,22.20
2022-08-26T19:30:55.243Z,22.40
2022-08-26T19:33:58.117Z,22.40
2022-08-26T19:37:00.103Z,22.40
2022-08-26T19:40:02.317Z,22.40
2022-08-26T19:43:05.006Z,22.30
2022-08-26T19:46:17.633Z,22.20
2022-08-26T19:49:20.183Z,22.00
2022-08-26T19:52:24.166Z,22.00
2022-08-26T19:55:33.353Z,21.90
2022-08-26T19:58:35.467Z,21.90
2022-08-26T20:01:37.385Z,21.80
2022-08-26T20:04:40.124Z,21.60
2022-08-26T20:07:42.140Z,21.40
2022-08-26T20:10:44.527Z,21.40
2022-08-26T20:13:47.451Z,21.50
2022-08-26T20:16:49.923Z,21.60
2022-08-26T20:20:16.068Z,21.50
2022-08-26T20:23:32.321Z,21.70
2022-08-26T20:26:36.422Z,21.50
2022-08-26T20:29:39.316Z,21.70
2022-08-26T20:32:42.303Z,21.60
2022-08-26T20:35:44.490Z,21.40
2022-08-26T20:38:47.285Z,21.30
2022-08-26T20:41:49.745Z,21.20
2022-08-26T20:44:54.735Z,21.10
2022-08-26T20:47:57.114Z,21.10
2022-08-26T20:51:00.110Z,20.90
2022-08-26T20:54:02.814Z,20.70
2022-08-26T20:57:05.042Z,20.60
2022-08-26T21:00:07.918Z,20.40
2022-08-26T21:03:09.861Z,20.40
2022-08-26T21:06:13.465Z,20.50
2022-08-26T21:09:16.551Z,20.70
2022-08-26T21:12:18.793Z,20.80
2022-08-26T21:15:21.184Z,20.80
2022-08-26T21:18:23.624Z,20.90
2022-08-26T21:21:27.556Z,21.00
2022-08-26T21:24:29.854Z,21.00
2022-08-26T21:27:31.821Z,21.10
2022-08-26T21:30:37.896Z,21.10
2022-08-26T21:33:40.499Z,21.00
2022-08-26T21:36:42.604Z,21.10
2022-08-26T21:39:44.796Z,21.10
2022-08-26T21:42:46.852Z,21.00
2022-08-26T21:45:49.933Z,21.00
2022-08-26T21:48:56.839Z,20.90
2022-08-26T21:51:58.779Z,20.90
2022-08-26T21:55:02.493Z,20.90
2022-08-26T21:58:04.550Z,20.80
2022-08-26T22:01:11.877Z,20.70
2022-08-26T22:04:14.183Z,20.80
2022-08-26T22:07:17.505Z,20.80
2022-08-26T22:10:19.776Z,20.80
2022-08-26T22:13:29.580Z,20.70
2022-08-26T22:16:31.681Z,20.50
2022-08-26T22:19:45.750Z,20.50
2022-08-26T22:22:48.819Z,20.40
2022-08-26T22:25:51.524Z,20.40
2022-08-26T22:28:59.169Z,20.30
2022-08-26T22:32:01.948Z,20.40
2022-08-26T22:35:16.677Z,20.50
2022-08-26T22:38:27.014Z,20.40
2022-08-26T22:41:29.026Z,20.50
2022-08-26T22:44:37.101Z,20.60
2022-08-26T22:47:40.027Z,20.60
2022-08-26T22:50:43.393Z,20.40
2022-08-26T22:53:45.857Z,20.40
2022-08-26T22:56:48.054Z,20.50
2022-08-26T22:59:50.263Z,20.40
2022-08-26T23:02:52.217Z,20.30
2022-08-26T23:05:55.644Z,20.40
2022-08-26T23:08:58.848Z,20.30
2022-08-26T23:12:00.722Z,20.50
2022-08-26T23:15:02.855Z,20.50
2022-08-26T23:18:05.115Z,20.40
2022-08-26T23:21:07.300Z,20.70
2022-08-26T23:24:10.083Z,20.70
2022-08-26T23:27:12.170Z,20.40
2022-08-26T23:30:19.777Z,20.30
2022-08-26T23:33:21.886Z,20.20
2022-08-26T23:36:23.837Z,20.30
2022-08-26T23:39:25.903Z,20.40
2022-08-26T23:42:28.986Z,20.50
2022-08-26T23:45:32.399Z,20.30
2022-08-26T23:48:34.421Z,20.30
2022-08-26T23:51:56.020Z,20.70
2022-08-26T23:54:58.141Z,20.70
2022-08-26T23:58:00.123Z,20.80
